createdAt,value
2023-04-29T00:01:25.750Z,1.02
2023-04-29T00:17:23.829Z,1.2
2023-04-29T00:28:02.335Z,1.5
2023-04-29T00:33:21.721Z,0.26
2023-04-29T00:43:59.596Z,0
2023-04-29T01:00:22.561Z,0.56
2023-04-29T01:16:19.352Z,1.48
2023-04-29T01:32:18.103Z,0
2023-04-29T01:42:54.988Z,0
2023-04-29T01:48:14.272Z,0.5
2023-04-29T01:58:52.450Z,0
2023-04-29T02:14:50.228Z,0
2023-04-29T02:25:29.259Z,0
2023-04-29T02:41:26.537Z,0.2
2023-04-29T02:57:24.111Z,0
2023-04-29T03:08:02.368Z,0.96
2023-04-29T03:13:21.221Z,0.18
2023-04-29T03:23:59.370Z,0.26
2023-04-29T03:45:16.716Z,0
2023-04-29T03:50:35.951Z,0
2023-04-29T04:01:14.465Z,0
2023-04-29T04:17:12.790Z,0.58
2023-04-29T04:33:11.603Z,0
2023-04-29T04:43:49.151Z,0
2023-04-29T04:49:08.640Z,0.9
2023-04-29T04:59:47.247Z,0
2023-04-29T05:15:45.075Z,0
2023-04-29T05:26:23.526Z,0
2023-04-29T05:31:43.196Z,0
2023-04-29T05:42:21.291Z,0
2023-04-29T05:58:19.474Z,0
2023-04-29T06:08:57.344Z,1.17
2023-04-29T06:14:16.566Z,0.52
2023-04-29T06:24:54.623Z,0.9
2023-04-29T06:40:52.665Z,1.24
2023-04-29T06:56:50.380Z,2.42
2023-04-29T07:07:28.613Z,1.36
2023-04-29T07:12:47.458Z,0.76
2023-04-29T07:23:25.788Z,1.02
2023-04-29T07:39:24.123Z,0.78
2023-04-29T07:55:22.190Z,2.9
2023-04-29T08:06:00.730Z,1.42
2023-04-29T08:21:58.374Z,1.6
2023-04-29T08:37:55.808Z,4.02
2023-04-29T08:48:34.321Z,5.18
2023-04-29T09:04:39.359Z,3.84
2023-04-29T09:20:29.291Z,2.96
2023-04-29T09:31:07.706Z,1.98
2023-04-29T09:36:26.499Z,3.62
2023-04-29T09:47:04.834Z,4.98
2023-04-29T10:03:02.572Z,5.32
2023-04-29T10:19:00.012Z,5.08
2023-04-29T10:24:18.865Z,3.48
2023-04-29T10:29:38.167Z,3.48
2023-04-29T10:40:16.224Z,1.08
2023-04-29T10:56:13.839Z,1.2
2023-04-29T11:06:52.679Z,1.68
2023-04-29T11:12:12.242Z,4.56
2023-04-29T11:22:51.450Z,3.72
2023-04-29T11:38:49.591Z,0.5
2023-04-29T11:54:47.101Z,4.78
2023-04-29T12:05:25.111Z,4.6
2023-04-29T12:10:44.642Z,5.9
2023-04-29T12:21:22.475Z,1.66
2023-04-29T12:37:19.433Z,3.2
2023-04-29T12:47:58.045Z,3.1
2023-04-29T12:53:17.790Z,1.44
2023-04-29T13:03:56.064Z,1.56
2023-04-29T13:19:52.818Z,2.48
2023-04-29T13:30:31.018Z,1.64
2023-04-29T13:35:50.117Z,1.08
2023-04-29T13:46:29.461Z,2.62
2023-04-29T14:02:26.679Z,2.8
2023-04-29T14:18:23.998Z,2.33
2023-04-29T14:29:02.287Z,1.34
2023-04-29T14:34:21.174Z,6.02
2023-04-29T14:44:59.556Z,4.16
2023-04-29T15:00:56.858Z,2.44
2023-04-29T15:11:35.385Z,0.42
2023-04-29T15:16:54.360Z,0.8
2023-04-29T15:27:32.803Z,1.04
2023-04-29T15:43:30.291Z,2.66
2023-04-29T15:54:08.257Z,0.88
2023-04-29T15:59:27.074Z,1.1
2023-04-29T16:10:05.660Z,0.8
2023-04-29T16:26:02.633Z,0.58
2023-04-29T16:36:41.687Z,0.86
2023-04-29T16:42:00.394Z,1.78
2023-04-29T16:52:39.126Z,1.6
2023-04-29T17:19:15.090Z,1.76
2023-04-29T17:29:53.337Z,0.52
2023-04-29T17:35:12.301Z,0
2023-04-29T17:45:51.302Z,0.42
2023-04-29T17:51:10.930Z,0
2023-04-29T18:01:49.866Z,0.34
2023-04-29T18:12:28.101Z,0
2023-04-29T18:17:47.245Z,0
2023-04-29T18:28:26.244Z,0
2023-04-29T18:50:08.022Z,0
2023-04-29T19:00:54.296Z,0.6
2023-04-29T19:16:44.347Z,0.64
2023-04-29T19:32:42.027Z,0
2023-04-29T19:43:20.226Z,0
2023-04-29T19:48:40.006Z,0
2023-04-29T19:59:17.812Z,0
2023-04-29T20:15:15.561Z,0
2023-04-29T20:25:54.389Z,0.6
2023-04-29T20:31:14.086Z,0.18
2023-04-29T20:41:51.233Z,0
2023-04-29T20:47:10.321Z,0
2023-04-29T20:57:48.961Z,0
2023-04-29T21:13:47.414Z,0.18
2023-04-29T21:24:26.615Z,0
2023-04-29T21:40:24.045Z,0.96
2023-04-29T21:56:22.455Z,0
2023-04-29T22:07:00.223Z,0.64
2023-04-29T22:12:18.974Z,0.42
2023-04-29T22:22:57.612Z,0.4
2023-04-29T22:38:54.682Z,0.58
2023-04-29T22:54:52.954Z,0.74
2023-04-29T23:05:31.614Z,1.2
2023-04-29T23:21:30.195Z,0
2023-04-29T23:37:28.038Z,0
2023-04-29T23:48:06.240Z,1.6
2023-04-29T23:58:44.318Z,0.18
